sensor_id;sensor_type;location;lat;lon;timestamp;temperature;humidity
21698;DHT22;11010;49.548;11.926;2023-04-01T00:01:48;7.90;99.90
21698;DHT22;11010;49.548;11.926;2023-04-01T00:04:16;7.90;99.90
21698;DHT22;11010;49.548;11.926;2023-04-01T00:06:43;7.90;99.90
21698;DHT22;11010;49.548;11.926;2023-04-01T00:09:10;7.90;99.90
21698;DHT22;11010;49.548;11.926;2023-04-01T00:11:37;7.90;99.90
21698;DHT22;11010;49.548;11.926;2023-04-01T00:14:05;7.90;99.90
21698;DHT22;11010;49.548;11.926;2023-04-01T00:16:32;7.90;99.90
21698;DHT22;11010;49.548;11.926;2023-04-01T00:18:59;7.90;99.90
21698;DHT22;11010;49.548;11.926;2023-04-01T00:21:27;7.90;99.90
21698;DHT22;11010;49.548;11.926;2023-04-01T00:23:54;8.00;99.90
21698;DHT22;11010;49.548;11.926;2023-04-01T00:26:21;7.90;99.90
21698;DHT22;11010;49.548;11.926;2023-04-01T00:28:49;7.90;99.90
21698;DHT22;11010;49.548;11.926;2023-04-01T00:31:16;7.90;99.90
21698;DHT22;11010;49.548;11.926;2023-04-01T00:33:43;7.80;99.90
21698;DHT22;11010;49.548;11.926;2023-04-01T00:36:12;7.80;99.90
21698;DHT22;11010;49.548;11.926;2023-04-01T00:38:40;7.90;99.90
21698;DHT22;11010;49.548;11.926;2023-04-01T00:41:10;7.80;99.90
21698;DHT22;11010;49.548;11.926;2023-04-01T00:43:43;7.80;99.90
21698;DHT22;11010;49.548;11.926;2023-04-01T00:46:11;7.90;99.90
21698;DHT22;11010;49.548;11.926;2023-04-01T00:48:42;7.90;99.90
21698;DHT22;11010;49.548;11.926;2023-04-01T00:51:27;7.90;99.90
21698;DHT22;11010;49.548;11.926;2023-04-01T00:53:58;7.90;99.90
21698;DHT22;11010;49.548;11.926;2023-04-01T00:56:38;8.00;99.90
21698;DHT22;11010;49.548;11.926;2023-04-01T00:59:11;7.90;99.90
21698;DHT22;11010;49.548;11.926;2023-04-01T01:01:40;7.90;99.90
21698;DHT22;11010;49.548;11.926;2023-04-01T01:04:27;7.90;99.90
21698;DHT22;11010;49.548;11.926;2023-04-01T01:10:13;8.00;99.90
21698;DHT22;11010;49.548;11.926;2023-04-01T01:15:40;7.90;99.90
21698;DHT22;11010;49.548;11.926;2023-04-01T01:18:45;7.90;99.90
21698;DHT22;11010;49.548;11.926;2023-04-01T01:21:28;7.90;99.90
21698;DHT22;11010;49.548;11.926;2023-04-01T01:24:30;7.90;99.90
21698;DHT22;11010;49.548;11.926;2023-04-01T01:27:07;8.00;99.90
21698;DHT22;11010;49.548;11.926;2023-04-01T01:29:59;8.00;99.90
21698;DHT22;11010;49.548;11.926;2023-04-01T01:35:55;8.00;99.90
21698;DHT22;11010;49.548;11.926;2023-04-01T01:38:27;8.00;99.90
21698;DHT22;11010;49.548;11.926;2023-04-01T01:41:00;8.00;99.90
21698;DHT22;11010;49.548;11.926;2023-04-01T01:43:42;7.90;99.90
21698;DHT22;11010;49.548;11.926;2023-04-01T01:46:17;7.90;99.90
21698;DHT22;11010;49.548;11.926;2023-04-01T01:48:47;8.00;99.90
21698;DHT22;11010;49.548;11.926;2023-04-01T01:51:14;8.00;99.90
21698;DHT22;11010;49.548;11.926;2023-04-01T01:53:42;8.00;99.90
21698;DHT22;11010;49.548;11.926;2023-04-01T01:56:11;7.90;99.90
21698;DHT22;11010;49.548;11.926;2023-04-01T01:58:43;8.00;99.90
21698;DHT22;11010;49.548;11.926;2023-04-01T02:01:17;7.90;99.90
21698;DHT22;11010;49.548;11.926;2023-04-01T02:03:46;7.90;99.90
21698;DHT22;11010;49.548;11.926;2023-04-01T02:06:17;7.80;99.90
21698;DHT22;11010;49.548;11.926;2023-04-01T02:08:47;7.80;99.90
21698;DHT22;11010;49.548;11.926;2023-04-01T02:11:17;7.80;99.90
21698;DHT22;11010;49.548;11.926;2023-04-01T02:14:01;7.70;99.90
21698;DHT22;11010;49.548;11.926;2023-04-01T02:19:20;7.60;99.90
21698;DHT22;11010;49.548;11.926;2023-04-01T02:21:57;7.50;99.90
21698;DHT22;11010;49.548;11.926;2023-04-01T02:24:28;7.50;99.90
21698;DHT22;11010;49.548;11.926;2023-04-01T02:26:56;7.40;99.90
21698;DHT22;11010;49.548;11.926;2023-04-01T02:29:25;7.50;99.90
21698;DHT22;11010;49.548;11.926;2023-04-01T02:31:53;7.40;99.90
21698;DHT22;11010;49.548;11.926;2023-04-01T02:34:22;7.50;99.90
21698;DHT22;11010;49.548;11.926;2023-04-01T02:36:50;7.40;99.90
21698;DHT22;11010;49.548;11.926;2023-04-01T02:39:18;7.40;99.90
21698;DHT22;11010;49.548;11.926;2023-04-01T02:41:46;7.40;99.90
21698;DHT22;11010;49.548;11.926;2023-04-01T02:44:14;7.40;99.90
21698;DHT22;11010;49.548;11.926;2023-04-01T02:46:43;7.40;99.90
21698;DHT22;11010;49.548;11.926;2023-04-01T02:49:10;7.50;99.90
21698;DHT22;11010;49.548;11.926;2023-04-01T02:51:37;7.50;99.90
21698;DHT22;11010;49.548;11.926;2023-04-01T02:54:05;7.30;99.90
21698;DHT22;11010;49.548;11.926;2023-04-01T02:56:32;7.40;99.90
21698;DHT22;11010;49.548;11.926;2023-04-01T02:58:59;7.40;99.90
21698;DHT22;11010;49.548;11.926;2023-04-01T03:01:26;7.30;99.90
21698;DHT22;11010;49.548;11.926;2023-04-01T03:03:53;7.30;99.90
21698;DHT22;11010;49.548;11.926;2023-04-01T03:06:21;7.30;99.90
21698;DHT22;11010;49.548;11.926;2023-04-01T03:08:48;7.30;99.90
21698;DHT22;11010;49.548;11.926;2023-04-01T03:11:15;7.30;99.90
21698;DHT22;11010;49.548;11.926;2023-04-01T03:13:42;7.30;99.90
21698;DHT22;11010;49.548;11.926;2023-04-01T03:16:09;7.40;99.90
21698;DHT22;11010;49.548;11.926;2023-04-01T03:18:37;7.40;99.90
21698;DHT22;11010;49.548;11.926;2023-04-01T03:21:19;7.40;99.90
21698;DHT22;11010;49.548;11.926;2023-04-01T03:23:46;7.30;99.90
21698;DHT22;11010;49.548;11.926;2023-04-01T03:26:13;7.30;99.90
21698;DHT22;11010;49.548;11.926;2023-04-01T03:28:41;7.40;99.90
21698;DHT22;11010;49.548;11.926;2023-04-01T03:31:09;7.40;99.90
21698;DHT22;11010;49.548;11.926;2023-04-01T03:33:42;7.40;99.90
21698;DHT22;11010;49.548;11.926;2023-04-01T03:36:10;7.40;99.90
21698;DHT22;11010;49.548;11.926;2023-04-01T03:38:43;7.40;99.90
21698;DHT22;11010;49.548;11.926;2023-04-01T03:41:16;7.50;99.90
21698;DHT22;11010;49.548;11.926;2023-04-01T03:43:43;7.50;99.90
21698;DHT22;11010;49.548;11.926;2023-04-01T03:46:11;7.40;99.90
21698;DHT22;11010;49.548;11.926;2023-04-01T03:52:02;7.50;99.90
21698;DHT22;11010;49.548;11.926;2023-04-01T03:54:29;7.50;99.90
21698;DHT22;11010;49.548;11.926;2023-04-01T03:56:57;7.50;99.90
21698;DHT22;11010;49.548;11.926;2023-04-01T03:59:27;7.50;99.90
21698;DHT22;11010;49.548;11.926;2023-04-01T04:01:55;7.50;99.90
21698;DHT22;11010;49.548;11.926;2023-04-01T04:04:23;7.50;99.90
21698;DHT22;11010;49.548;11.926;2023-04-01T04:06:50;7.50;99.90
21698;DHT22;11010;49.548;11.926;2023-04-01T04:09:20;7.50;99.90
21698;DHT22;11010;49.548;11.926;2023-04-01T04:11:48;7.50;99.90
21698;DHT22;11010;49.548;11.926;2023-04-01T04:14:16;7.60;99.90
21698;DHT22;11010;49.548;11.926;2023-04-01T04:16:45;7.50;99.90
21698;DHT22;11010;49.548;11.926;2023-04-01T04:19:12;7.50;99.90
21698;DHT22;11010;49.548;11.926;2023-04-01T04:21:41;7.50;99.90
21698;DHT22;11010;49.548;11.926;2023-04-01T04:24:09;7.60;99.90
21698;DHT22;11010;49.548;11.926;2023-04-01T04:27:00;7.60;99.90
21698;DHT22;11010;49.548;11.926;2023-04-01T04:29:28;7.60;99.90
21698;DHT22;11010;49.548;11.926;2023-04-01T04:31:56;7.60;99.90
21698;DHT22;11010;49.548;11.926;2023-04-01T04:34:24;7.60;99.90
21698;DHT22;11010;49.548;11.926;2023-04-01T04:36:51;7.60;99.90
21698;DHT22;11010;49.548;11.926;2023-04-01T04:39:21;7.60;99.90
21698;DHT22;11010;49.548;11.926;2023-04-01T04:41:49;7.60;99.90
21698;DHT22;11010;49.548;11.926;2023-04-01T04:44:16;7.60;99.90
21698;DHT22;11010;49.548;11.926;2023-04-01T04:46:44;7.60;99.90
21698;DHT22;11010;49.548;11.926;2023-04-01T04:49:14;7.60;99.90
21698;DHT22;11010;49.548;11.926;2023-04-01T04:51:41;7.60;99.90
21698;DHT22;11010;49.548;11.926;2023-04-01T04:54:09;7.60;99.90
21698;DHT22;11010;49.548;11.926;2023-04-01T04:56:55;7.70;99.90
21698;DHT22;11010;49.548;11.926;2023-04-01T04:59:24;7.60;99.90
21698;DHT22;11010;49.548;11.926;2023-04-01T05:01:59;7.60;99.90
21698;DHT22;11010;49.548;11.926;2023-04-01T05:04:28;7.70;99.90
21698;DHT22;11010;49.548;11.926;2023-04-01T05:06:55;7.70;99.90
21698;DHT22;11010;49.548;11.926;2023-04-01T05:09:23;7.60;99.90
21698;DHT22;11010;49.548;11.926;2023-04-01T05:11:50;7.70;99.90
21698;DHT22;11010;49.548;11.926;2023-04-01T05:14:19;7.70;99.90
21698;DHT22;11010;49.548;11.926;2023-04-01T05:17:00;7.70;99.90
21698;DHT22;11010;49.548;11.926;2023-04-01T05:19:27;7.70;99.90
21698;DHT22;11010;49.548;11.926;2023-04-01T05:21:55;7.70;99.90
21698;DHT22;11010;49.548;11.926;2023-04-01T05:24:22;7.70;99.90
21698;DHT22;11010;49.548;11.926;2023-04-01T05:26:50;7.70;99.90
21698;DHT22;11010;49.548;11.926;2023-04-01T05:29:19;7.70;99.90
21698;DHT22;11010;49.548;11.926;2023-04-01T05:31:51;7.70;99.90
21698;DHT22;11010;49.548;11.926;2023-04-01T05:34:19;7.70;99.90
21698;DHT22;11010;49.548;11.926;2023-04-01T05:36:46;7.70;99.90
21698;DHT22;11010;49.548;11.926;2023-04-01T05:39:15;7.70;99.90
21698;DHT22;11010;49.548;11.926;2023-04-01T05:41:43;7.60;99.90
21698;DHT22;11010;49.548;11.926;2023-04-01T05:44:12;7.60;99.90
21698;DHT22;11010;49.548;11.926;2023-04-01T05:46:39;7.60;99.90
21698;DHT22;11010;49.548;11.926;2023-04-01T05:49:26;7.60;99.90
21698;DHT22;11010;49.548;11.926;2023-04-01T05:51:55;7.60;99.90
21698;DHT22;11010;49.548;11.926;2023-04-01T05:54:23;7.60;99.90
21698;DHT22;11010;49.548;11.926;2023-04-01T05:56:50;7.60;99.90
21698;DHT22;11010;49.548;11.926;2023-04-01T05:59:19;7.60;99.90
21698;DHT22;11010;49.548;11.926;2023-04-01T06:01:46;7.60;99.90
21698;DHT22;11010;49.548;11.926;2023-04-01T06:04:16;7.60;99.90
21698;DHT22;11010;49.548;11.926;2023-04-01T06:06:44;7.60;99.90
21698;DHT22;11010;49.548;11.926;2023-04-01T06:09:27;7.60;99.90
21698;DHT22;11010;49.548;11.926;2023-04-01T06:15:41;7.60;99.90
21698;DHT22;11010;49.548;11.926;2023-04-01T06:35:20;7.60;99.90
21698;DHT22;11010;49.548;11.926;2023-04-01T06:47:14;7.80;99.90
21698;DHT22;11010;49.548;11.926;2023-04-01T06:56:15;7.90;99.90
21698;DHT22;11010;49.548;11.926;2023-04-01T06:59:30;7.90;99.90
21698;DHT22;11010;49.548;11.926;2023-04-01T07:02:25;7.90;99.90
21698;DHT22;11010;49.548;11.926;2023-04-01T07:04:58;7.90;99.90
21698;DHT22;11010;49.548;11.926;2023-04-01T07:07:50;8.00;99.90
21698;DHT22;11010;49.548;11.926;2023-04-01T07:10:31;8.00;99.90
21698;DHT22;11010;49.548;11.926;2023-04-01T07:13:51;8.10;99.90
21698;DHT22;11010;49.548;11.926;2023-04-01T07:16:40;8.10;99.90
21698;DHT22;11010;49.548;11.926;2023-04-01T07:19:24;8.10;99.90
21698;DHT22;11010;49.548;11.926;2023-04-01T07:22:21;8.10;99.90
21698;DHT22;11010;49.548;11.926;2023-04-01T07:25:24;8.10;99.90
21698;DHT22;11010;49.548;11.926;2023-04-01T07:28:16;8.20;99.90
21698;DHT22;11010;49.548;11.926;2023-04-01T07:31:42;8.30;99.90
21698;DHT22;11010;49.548;11.926;2023-04-01T07:34:08;8.30;99.90
21698;DHT22;11010;49.548;11.926;2023-04-01T07:43:15;8.40;99.90
21698;DHT22;11010;49.548;11.926;2023-04-01T07:50:59;8.50;99.90
21698;DHT22;11010;49.548;11.926;2023-04-01T07:59:14;8.60;99.90
21698;DHT22;11010;49.548;11.926;2023-04-01T08:05:19;8.80;99.90
21698;DHT22;11010;49.548;11.926;2023-04-01T08:07:56;8.70;99.90
21698;DHT22;11010;49.548;11.926;2023-04-01T08:30:43;8.70;99.90
21698;DHT22;11010;49.548;11.926;2023-04-01T08:33:25;8.70;99.90
21698;DHT22;11010;49.548;11.926;2023-04-01T08:36:20;8.70;99.90
21698;DHT22;11010;49.548;11.926;2023-04-01T08:39:22;8.70;99.90
21698;DHT22;11010;49.548;11.926;2023-04-01T08:51:12;8.60;99.90
21698;DHT22;11010;49.548;11.926;2023-04-01T08:56:20;8.60;99.90
21698;DHT22;11010;49.548;11.926;2023-04-01T09:26:17;8.90;99.90
21698;DHT22;11010;49.548;11.926;2023-04-01T09:40:24;9.00;99.90
21698;DHT22;11010;49.548;11.926;2023-04-01T09:43:20;9.10;99.90
21698;DHT22;11010;49.548;11.926;2023-04-01T09:51:52;9.10;99.90
21698;DHT22;11010;49.548;11.926;2023-04-01T10:00:55;9.10;99.90
21698;DHT22;11010;49.548;11.926;2023-04-01T10:25:39;9.10;99.90
21698;DHT22;11010;49.548;11.926;2023-04-01T10:28:44;9.10;99.90
21698;DHT22;11010;49.548;11.926;2023-04-01T10:32:01;9.20;99.90
21698;DHT22;11010;49.548;11.926;2023-04-01T10:43:45;9.10;99.90
21698;DHT22;11010;49.548;11.926;2023-04-01T10:46:46;9.10;99.90
21698;DHT22;11010;49.548;11.926;2023-04-01T10:55:37;9.10;99.90
21698;DHT22;11010;49.548;11.926;2023-04-01T11:11:02;9.00;99.90
21698;DHT22;11010;49.548;11.926;2023-04-01T11:25:39;9.00;99.90
21698;DHT22;11010;49.548;11.926;2023-04-01T11:32:28;9.00;99.90
21698;DHT22;11010;49.548;11.926;2023-04-01T11:35:42;9.00;99.90
21698;DHT22;11010;49.548;11.926;2023-04-01T11:41:38;9.10;99.90
21698;DHT22;11010;49.548;11.926;2023-04-01T11:44:46;9.10;99.90
21698;DHT22;11010;49.548;11.926;2023-04-01T12:05:02;9.00;99.90
21698;DHT22;11010;49.548;11.926;2023-04-01T12:21:37;9.00;99.90
21698;DHT22;11010;49.548;11.926;2023-04-01T12:38:18;8.70;99.90
21698;DHT22;11010;49.548;11.926;2023-04-01T12:41:09;8.80;99.90
21698;DHT22;11010;49.548;11.926;2023-04-01T13:12:02;8.50;99.90
21698;DHT22;11010;49.548;11.926;2023-04-01T13:14:54;8.40;99.90
21698;DHT22;11010;49.548;11.926;2023-04-01T13:20:48;8.40;99.90
21698;DHT22;11010;49.548;11.926;2023-04-01T13:29:20;8.60;99.90
21698;DHT22;11010;49.548;11.926;2023-04-01T13:41:13;8.80;99.90
21698;DHT22;11010;49.548;11.926;2023-04-01T13:55:50;8.70;99.90
21698;DHT22;11010;49.548;11.926;2023-04-01T14:04:23;8.70;99.90
21698;DHT22;11010;49.548;11.926;2023-04-01T14:12:44;8.60;99.90
21698;DHT22;11010;49.548;11.926;2023-04-01T14:20:57;8.50;99.90
21698;DHT22;11010;49.548;11.926;2023-04-01T14:23:55;8.50;99.90
21698;DHT22;11010;49.548;11.926;2023-04-01T14:38:31;8.50;99.90
21698;DHT22;11010;49.548;11.926;2023-04-01T14:41:33;8.50;99.90
21698;DHT22;11010;49.548;11.926;2023-04-01T14:49:39;8.60;99.90
21698;DHT22;11010;49.548;11.926;2023-04-01T14:52:22;8.70;99.90
21698;DHT22;11010;49.548;11.926;2023-04-01T14:54:50;8.60;99.90
21698;DHT22;11010;49.548;11.926;2023-04-01T14:57:29;8.70;99.90
21698;DHT22;11010;49.548;11.926;2023-04-01T15:00:17;8.70;99.90
21698;DHT22;11010;49.548;11.926;2023-04-01T15:03:19;8.70;99.90
21698;DHT22;11010;49.548;11.926;2023-04-01T15:23:08;8.70;99.90
21698;DHT22;11010;49.548;11.926;2023-04-01T15:31:15;8.70;99.90
21698;DHT22;11010;49.548;11.926;2023-04-01T15:34:18;8.70;99.90
21698;DHT22;11010;49.548;11.926;2023-04-01T15:39:50;8.70;99.90
21698;DHT22;11010;49.548;11.926;2023-04-01T15:45:16;8.70;99.90
21698;DHT22;11010;49.548;11.926;2023-04-01T15:56:16;8.60;99.90
21698;DHT22;11010;49.548;11.926;2023-04-01T15:59:01;8.70;99.90
21698;DHT22;11010;49.548;11.926;2023-04-01T16:10:36;8.60;99.90
21698;DHT22;11010;49.548;11.926;2023-04-01T16:16:01;8.60;99.90
21698;DHT22;11010;49.548;11.926;2023-04-01T16:21:09;8.60;99.90
21698;DHT22;11010;49.548;11.926;2023-04-01T16:23:48;8.50;99.90
21698;DHT22;11010;49.548;11.926;2023-04-01T16:26:37;8.50;99.90
21698;DHT22;11010;49.548;11.926;2023-04-01T16:31:57;8.50;99.90
21698;DHT22;11010;49.548;11.926;2023-04-01T16:35:00;8.50;99.90
21698;DHT22;11010;49.548;11.926;2023-04-01T16:37:32;8.50;99.90
21698;DHT22;11010;49.548;11.926;2023-04-01T16:40:02;8.50;99.90
21698;DHT22;11010;49.548;11.926;2023-04-01T16:42:56;8.40;99.90
21698;DHT22;11010;49.548;11.926;2023-04-01T16:45:37;8.50;99.90
21698;DHT22;11010;49.548;11.926;2023-04-01T16:48:12;8.50;99.90
21698;DHT22;11010;49.548;11.926;2023-04-01T16:58:18;8.50;99.90
21698;DHT22;11010;49.548;11.926;2023-04-01T17:00:50;8.40;99.90
21698;DHT22;11010;49.548;11.926;2023-04-01T17:03:30;8.40;99.90
21698;DHT22;11010;49.548;11.926;2023-04-01T17:11:16;8.30;99.90
21698;DHT22;11010;49.548;11.926;2023-04-01T17:22:56;8.30;99.90
21698;DHT22;11010;49.548;11.926;2023-04-01T17:36:04;8.20;99.90
21698;DHT22;11010;49.548;11.926;2023-04-01T17:49:39;8.20;99.90
21698;DHT22;11010;49.548;11.926;2023-04-01T17:52:34;8.20;99.90
21698;DHT22;11010;49.548;11.926;2023-04-01T17:55:40;8.10;99.90
21698;DHT22;11010;49.548;11.926;2023-04-01T17:58:26;8.10;99.90
21698;DHT22;11010;49.548;11.926;2023-04-01T18:04:06;8.10;99.90
21698;DHT22;11010;49.548;11.926;2023-04-01T18:15:49;8.00;99.90
21698;DHT22;11010;49.548;11.926;2023-04-01T18:21:15;8.00;99.90
21698;DHT22;11010;49.548;11.926;2023-04-01T18:24:02;7.90;99.90
21698;DHT22;11010;49.548;11.926;2023-04-01T18:26:34;7.90;99.90
21698;DHT22;11010;49.548;11.926;2023-04-01T18:31:49;7.90;99.90
21698;DHT22;11010;49.548;11.926;2023-04-01T18:34:40;7.90;99.90
21698;DHT22;11010;49.548;11.926;2023-04-01T18:37:28;7.90;99.90
21698;DHT22;11010;49.548;11.926;2023-04-01T18:43:16;7.90;99.90
21698;DHT22;11010;49.548;11.926;2023-04-01T18:45:54;7.90;99.90
21698;DHT22;11010;49.548;11.926;2023-04-01T18:51:26;7.80;99.90
21698;DHT22;11010;49.548;11.926;2023-04-01T18:54:19;7.80;99.90
21698;DHT22;11010;49.548;11.926;2023-04-01T18:56:50;7.90;99.90
21698;DHT22;11010;49.548;11.926;2023-04-01T18:59:34;7.80;99.90
21698;DHT22;11010;49.548;11.926;2023-04-01T19:02:40;7.80;99.90
21698;DHT22;11010;49.548;11.926;2023-04-01T19:05:36;7.80;99.90
21698;DHT22;11010;49.548;11.926;2023-04-01T19:21:33;7.70;99.90
21698;DHT22;11010;49.548;11.926;2023-04-01T19:32:37;7.80;99.90
21698;DHT22;11010;49.548;11.926;2023-04-01T19:38:12;7.70;99.90
21698;DHT22;11010;49.548;11.926;2023-04-01T19:43:49;7.70;99.90
21698;DHT22;11010;49.548;11.926;2023-04-01T19:46:27;7.70;99.90
21698;DHT22;11010;49.548;11.926;2023-04-01T19:57:46;7.70;99.90
21698;DHT22;11010;49.548;11.926;2023-04-01T20:03:05;7.80;99.90
21698;DHT22;11010;49.548;11.926;2023-04-01T20:11:58;7.80;99.90
21698;DHT22;11010;49.548;11.926;2023-04-01T20:14:47;7.80;99.90
21698;DHT22;11010;49.548;11.926;2023-04-01T20:17:30;7.70;99.90
21698;DHT22;11010;49.548;11.926;2023-04-01T20:25:21;7.70;99.90
21698;DHT22;11010;49.548;11.926;2023-04-01T20:27:55;7.70;99.90
21698;DHT22;11010;49.548;11.926;2023-04-01T20:33:37;7.70;99.90
21698;DHT22;11010;49.548;11.926;2023-04-01T20:39:30;7.70;99.90
21698;DHT22;11010;49.548;11.926;2023-04-01T20:42:23;7.70;99.90
21698;DHT22;11010;49.548;11.926;2023-04-01T21:10:50;7.70;99.90
21698;DHT22;11010;49.548;11.926;2023-04-01T21:22:14;7.70;99.90
21698;DHT22;11010;49.548;11.926;2023-04-01T21:31:18;7.70;99.90
21698;DHT22;11010;49.548;11.926;2023-04-01T21:37:36;7.70;99.90
21698;DHT22;11010;49.548;11.926;2023-04-01T22:05:10;7.60;99.90
21698;DHT22;11010;49.548;11.926;2023-04-01T22:10:49;7.70;99.90
21698;DHT22;11010;49.548;11.926;2023-04-01T22:13:41;7.70;99.90
21698;DHT22;11010;49.548;11.926;2023-04-01T22:21:57;7.70;99.90
21698;DHT22;11010;49.548;11.926;2023-04-01T22:30:14;7.70;99.90
21698;DHT22;11010;49.548;11.926;2023-04-01T22:32:46;7.60;99.90
21698;DHT22;11010;49.548;11.926;2023-04-01T22:38:03;7.60;99.90
21698;DHT22;11010;49.548;11.926;2023-04-01T22:43:39;7.60;99.90
21698;DHT22;11010;49.548;11.926;2023-04-01T22:54:43;7.60;99.90
21698;DHT22;11010;49.548;11.926;2023-04-01T23:03:10;7.60;99.90
21698;DHT22;11010;49.548;11.926;2023-04-01T23:05:39;7.50;99.90
21698;DHT22;11010;49.548;11.926;2023-04-01T23:10:56;7.50;99.90
21698;DHT22;11010;49.548;11.926;2023-04-01T23:13:29;7.50;99.90
21698;DHT22;11010;49.548;11.926;2023-04-01T23:15:59;7.50;99.90
21698;DHT22;11010;49.548;11.926;2023-04-01T23:18:35;7.50;99.90
21698;DHT22;11010;49.548;11.926;2023-04-01T23:21:11;7.50;99.90
21698;DHT22;11010;49.548;11.926;2023-04-01T23:27:00;7.50;99.90
21698;DHT22;11010;49.548;11.926;2023-04-01T23:29:29;7.50;99.90
21698;DHT22;11010;49.548;11.926;2023-04-01T23:32:01;7.50;99.90
21698;DHT22;11010;49.548;11.926;2023-04-01T23:34:35;7.50;99.90
21698;DHT22;11010;49.548;11.926;2023-04-01T23:37:10;7.50;99.90
21698;DHT22;11010;49.548;11.926;2023-04-01T23:40:01;7.50;99.90
21698;DHT22;11010;49.548;11.926;2023-04-01T23:42:37;7.50;99.90
21698;DHT22;11010;49.548;11.926;2023-04-01T23:45:14;7.50;99.90
21698;DHT22;11010;49.548;11.926;2023-04-01T23:47:45;7.50;99.90
21698;DHT22;11010;49.548;11.926;2023-04-01T23:50:17;7.50;99.90
21698;DHT22;11010;49.548;11.926;2023-04-01T23:52:53;7.50;99.90
21698;DHT22;11010;49.548;11.926;2023-04-01T23:55:34;7.50;99.90
